sensor_id;sensor_type;location;lat;lon;timestamp;P1;durP1;ratioP1;P2;durP2;ratioP2
21293;SDS011;10806;52.250;21.066;2022-08-06T00:01:41;12.77;;;10.43;;
21293;SDS011;10806;52.250;21.066;2022-08-06T00:04:07;17.08;;;10.82;;
21293;SDS011;10806;52.250;21.066;2022-08-06T00:06:33;19.05;;;10.85;;
21293;SDS011;10806;52.250;21.066;2022-08-06T00:08:58;14.23;;;10.18;;
21293;SDS011;10806;52.250;21.066;2022-08-06T00:11:24;15.45;;;10.80;;
21293;SDS011;10806;52.250;21.066;2022-08-06T00:13:50;19.15;;;10.63;;
21293;SDS011;10806;52.250;21.066;2022-08-06T00:16:15;11.93;;;10.52;;
21293;SDS011;10806;52.250;21.066;2022-08-06T00:18:41;15.68;;;10.43;;
21293;SDS011;10806;52.250;21.066;2022-08-06T00:21:07;15.48;;;11.30;;
21293;SDS011;10806;52.250;21.066;2022-08-06T00:23:32;21.23;;;11.00;;
21293;SDS011;10806;52.250;21.066;2022-08-06T00:25:58;17.05;;;10.82;;
21293;SDS011;10806;52.250;21.066;2022-08-06T00:28:24;13.55;;;10.48;;
21293;SDS011;10806;52.250;21.066;2022-08-06T00:30:50;12.38;;;10.15;;
21293;SDS011;10806;52.250;21.066;2022-08-06T00:33:16;16.20;;;10.30;;
21293;SDS011;10806;52.250;21.066;2022-08-06T00:35:42;14.55;;;10.65;;
21293;SDS011;10806;52.250;21.066;2022-08-06T00:38:08;13.98;;;10.18;;
21293;SDS011;10806;52.250;21.066;2022-08-06T00:40:34;12.05;;;9.65;;
21293;SDS011;10806;52.250;21.066;2022-08-06T00:43:01;13.85;;;10.48;;
21293;SDS011;10806;52.250;21.066;2022-08-06T00:45:29;14.73;;;10.60;;
21293;SDS011;10806;52.250;21.066;2022-08-06T00:47:59;16.25;;;10.70;;
21293;SDS011;10806;52.250;21.066;2022-08-06T00:50:25;12.18;;;10.35;;
21293;SDS011;10806;52.250;21.066;2022-08-06T00:52:51;16.42;;;10.82;;
21293;SDS011;10806;52.250;21.066;2022-08-06T00:55:17;15.77;;;10.35;;
21293;SDS011;10806;52.250;21.066;2022-08-06T00:57:44;14.38;;;10.25;;
21293;SDS011;10806;52.250;21.066;2022-08-06T01:00:10;12.15;;;10.85;;
21293;SDS011;10806;52.250;21.066;2022-08-06T01:02:36;13.57;;;10.15;;
21293;SDS011;10806;52.250;21.066;2022-08-06T01:05:02;17.15;;;10.73;;
21293;SDS011;10806;52.250;21.066;2022-08-06T01:07:28;12.07;;;10.27;;
21293;SDS011;10806;52.250;21.066;2022-08-06T01:09:53;13.63;;;10.80;;
21293;SDS011;10806;52.250;21.066;2022-08-06T01:12:19;14.82;;;10.10;;
21293;SDS011;10806;52.250;21.066;2022-08-06T01:14:44;11.88;;;10.70;;
21293;SDS011;10806;52.250;21.066;2022-08-06T01:17:16;11.90;;;10.00;;
21293;SDS011;10806;52.250;21.066;2022-08-06T01:19:51;15.32;;;10.65;;
21293;SDS011;10806;52.250;21.066;2022-08-06T01:22:27;12.63;;;10.40;;
21293;SDS011;10806;52.250;21.066;2022-08-06T01:28:22;14.40;;;10.40;;
21293;SDS011;10806;52.250;21.066;2022-08-06T01:30:52;15.80;;;11.27;;
21293;SDS011;10806;52.250;21.066;2022-08-06T01:33:26;16.55;;;10.10;;
21293;SDS011;10806;52.250;21.066;2022-08-06T01:35:58;19.52;;;10.50;;
21293;SDS011;10806;52.250;21.066;2022-08-06T01:38:31;13.57;;;10.68;;
21293;SDS011;10806;52.250;21.066;2022-08-06T01:41:01;14.20;;;10.90;;
21293;SDS011;10806;52.250;21.066;2022-08-06T01:43:30;14.20;;;10.95;;
21293;SDS011;10806;52.250;21.066;2022-08-06T01:45:57;15.25;;;11.02;;
21293;SDS011;10806;52.250;21.066;2022-08-06T01:48:25;16.35;;;10.98;;
21293;SDS011;10806;52.250;21.066;2022-08-06T01:50:52;11.82;;;10.20;;
21293;SDS011;10806;52.250;21.066;2022-08-06T01:53:23;13.60;;;10.82;;
21293;SDS011;10806;52.250;21.066;2022-08-06T01:55:54;16.70;;;10.38;;
21293;SDS011;10806;52.250;21.066;2022-08-06T01:58:22;14.68;;;11.35;;
21293;SDS011;10806;52.250;21.066;2022-08-06T02:00:52;14.73;;;10.13;;
21293;SDS011;10806;52.250;21.066;2022-08-06T02:03:22;11.95;;;9.90;;
21293;SDS011;10806;52.250;21.066;2022-08-06T02:06:06;14.18;;;10.52;;
21293;SDS011;10806;52.250;21.066;2022-08-06T02:08:34;13.93;;;10.60;;
21293;SDS011;10806;52.250;21.066;2022-08-06T02:11:02;16.08;;;11.25;;
21293;SDS011;10806;52.250;21.066;2022-08-06T02:13:30;14.25;;;10.73;;
21293;SDS011;10806;52.250;21.066;2022-08-06T02:15:58;12.45;;;10.52;;
21293;SDS011;10806;52.250;21.066;2022-08-06T02:18:24;12.45;;;10.48;;
21293;SDS011;10806;52.250;21.066;2022-08-06T02:20:51;11.50;;;10.43;;
21293;SDS011;10806;52.250;21.066;2022-08-06T02:23:21;13.32;;;10.77;;
21293;SDS011;10806;52.250;21.066;2022-08-06T02:25:49;11.40;;;10.25;;
21293;SDS011;10806;52.250;21.066;2022-08-06T02:28:18;12.25;;;10.02;;
21293;SDS011;10806;52.250;21.066;2022-08-06T02:30:47;12.32;;;10.90;;
21293;SDS011;10806;52.250;21.066;2022-08-06T02:33:16;13.00;;;10.20;;
21293;SDS011;10806;52.250;21.066;2022-08-06T02:35:46;17.23;;;10.75;;
21293;SDS011;10806;52.250;21.066;2022-08-06T02:38:26;15.82;;;11.13;;
21293;SDS011;10806;52.250;21.066;2022-08-06T02:41:05;13.60;;;10.15;;
21293;SDS011;10806;52.250;21.066;2022-08-06T02:43:42;14.15;;;10.57;;
21293;SDS011;10806;52.250;21.066;2022-08-06T02:46:21;13.52;;;11.40;;
21293;SDS011;10806;52.250;21.066;2022-08-06T02:48:58;12.32;;;11.00;;
21293;SDS011;10806;52.250;21.066;2022-08-06T02:51:32;11.65;;;10.50;;
21293;SDS011;10806;52.250;21.066;2022-08-06T02:54:12;13.57;;;10.90;;
21293;SDS011;10806;52.250;21.066;2022-08-06T02:56:42;18.58;;;10.82;;
21293;SDS011;10806;52.250;21.066;2022-08-06T02:59:11;15.13;;;10.88;;
21293;SDS011;10806;52.250;21.066;2022-08-06T03:01:41;16.02;;;10.73;;
21293;SDS011;10806;52.250;21.066;2022-08-06T03:04:13;15.43;;;10.82;;
21293;SDS011;10806;52.250;21.066;2022-08-06T03:06:41;20.17;;;10.70;;
21293;SDS011;10806;52.250;21.066;2022-08-06T03:09:10;14.65;;;10.77;;
21293;SDS011;10806;52.250;21.066;2022-08-06T03:11:37;14.15;;;10.40;;
21293;SDS011;10806;52.250;21.066;2022-08-06T03:14:05;11.93;;;10.57;;
21293;SDS011;10806;52.250;21.066;2022-08-06T03:16:36;12.55;;;10.27;;
21293;SDS011;10806;52.250;21.066;2022-08-06T03:19:03;13.30;;;10.68;;
21293;SDS011;10806;52.250;21.066;2022-08-06T03:21:30;15.15;;;11.50;;
21293;SDS011;10806;52.250;21.066;2022-08-06T03:23:58;12.65;;;10.75;;
21293;SDS011;10806;52.250;21.066;2022-08-06T03:26:26;13.77;;;10.98;;
21293;SDS011;10806;52.250;21.066;2022-08-06T03:28:56;12.65;;;10.65;;
21293;SDS011;10806;52.250;21.066;2022-08-06T03:31:25;13.77;;;11.32;;
21293;SDS011;10806;52.250;21.066;2022-08-06T03:33:52;15.40;;;10.93;;
21293;SDS011;10806;52.250;21.066;2022-08-06T03:36:18;19.27;;;10.50;;
21293;SDS011;10806;52.250;21.066;2022-08-06T03:38:58;27.63;;;11.32;;
21293;SDS011;10806;52.250;21.066;2022-08-06T03:41:32;26.10;;;11.73;;
21293;SDS011;10806;52.250;21.066;2022-08-06T03:44:00;27.02;;;12.02;;
21293;SDS011;10806;52.250;21.066;2022-08-06T03:46:27;24.42;;;11.43;;
21293;SDS011;10806;52.250;21.066;2022-08-06T03:49:18;36.85;;;11.93;;
21293;SDS011;10806;52.250;21.066;2022-08-06T03:51:48;25.48;;;11.30;;
21293;SDS011;10806;52.250;21.066;2022-08-06T03:54:17;27.25;;;12.00;;
21293;SDS011;10806;52.250;21.066;2022-08-06T03:56:46;21.55;;;11.57;;
21293;SDS011;10806;52.250;21.066;2022-08-06T03:59:14;29.08;;;11.82;;
21293;SDS011;10806;52.250;21.066;2022-08-06T04:01:42;20.95;;;11.70;;
21293;SDS011;10806;52.250;21.066;2022-08-06T04:04:10;20.05;;;11.57;;
21293;SDS011;10806;52.250;21.066;2022-08-06T04:06:36;22.73;;;12.25;;
21293;SDS011;10806;52.250;21.066;2022-08-06T04:09:02;16.90;;;11.07;;
21293;SDS011;10806;52.250;21.066;2022-08-06T04:11:30;29.45;;;11.80;;
21293;SDS011;10806;52.250;21.066;2022-08-06T04:13:57;19.08;;;11.63;;
21293;SDS011;10806;52.250;21.066;2022-08-06T04:16:24;12.75;;;10.48;;
21293;SDS011;10806;52.250;21.066;2022-08-06T04:18:51;22.42;;;11.98;;
21293;SDS011;10806;52.250;21.066;2022-08-06T04:21:22;13.40;;;11.30;;
21293;SDS011;10806;52.250;21.066;2022-08-06T04:23:48;18.23;;;11.27;;
21293;SDS011;10806;52.250;21.066;2022-08-06T04:26:15;13.95;;;11.13;;
21293;SDS011;10806;52.250;21.066;2022-08-06T04:28:47;13.68;;;11.20;;
21293;SDS011;10806;52.250;21.066;2022-08-06T04:31:16;17.30;;;11.57;;
21293;SDS011;10806;52.250;21.066;2022-08-06T04:33:44;17.35;;;11.43;;
21293;SDS011;10806;52.250;21.066;2022-08-06T04:36:10;18.60;;;11.32;;
21293;SDS011;10806;52.250;21.066;2022-08-06T04:38:37;15.30;;;11.43;;
21293;SDS011;10806;52.250;21.066;2022-08-06T04:41:03;14.55;;;11.30;;
21293;SDS011;10806;52.250;21.066;2022-08-06T04:43:30;18.45;;;11.45;;
21293;SDS011;10806;52.250;21.066;2022-08-06T04:45:56;11.98;;;10.77;;
21293;SDS011;10806;52.250;21.066;2022-08-06T04:48:22;12.13;;;11.02;;
21293;SDS011;10806;52.250;21.066;2022-08-06T04:50:49;16.15;;;11.25;;
21293;SDS011;10806;52.250;21.066;2022-08-06T04:53:16;17.20;;;10.82;;
21293;SDS011;10806;52.250;21.066;2022-08-06T04:55:43;13.18;;;11.73;;
21293;SDS011;10806;52.250;21.066;2022-08-06T04:58:10;15.45;;;10.68;;
21293;SDS011;10806;52.250;21.066;2022-08-06T05:00:41;12.90;;;11.10;;
21293;SDS011;10806;52.250;21.066;2022-08-06T05:03:09;14.23;;;11.70;;
21293;SDS011;10806;52.250;21.066;2022-08-06T05:05:39;14.10;;;11.15;;
21293;SDS011;10806;52.250;21.066;2022-08-06T05:08:17;12.13;;;10.98;;
21293;SDS011;10806;52.250;21.066;2022-08-06T05:10:53;11.60;;;10.50;;
21293;SDS011;10806;52.250;21.066;2022-08-06T05:13:23;13.35;;;11.70;;
21293;SDS011;10806;52.250;21.066;2022-08-06T05:15:55;16.30;;;11.50;;
21293;SDS011;10806;52.250;21.066;2022-08-06T05:18:25;13.35;;;11.60;;
21293;SDS011;10806;52.250;21.066;2022-08-06T05:20:55;14.48;;;11.35;;
21293;SDS011;10806;52.250;21.066;2022-08-06T05:23:26;12.93;;;11.57;;
21293;SDS011;10806;52.250;21.066;2022-08-06T05:25:56;14.05;;;11.68;;
21293;SDS011;10806;52.250;21.066;2022-08-06T05:28:22;15.95;;;12.05;;
21293;SDS011;10806;52.250;21.066;2022-08-06T05:30:49;13.25;;;11.73;;
21293;SDS011;10806;52.250;21.066;2022-08-06T05:33:22;12.80;;;11.48;;
21293;SDS011;10806;52.250;21.066;2022-08-06T05:35:49;13.60;;;11.05;;
21293;SDS011;10806;52.250;21.066;2022-08-06T05:38:14;12.88;;;11.35;;
21293;SDS011;10806;52.250;21.066;2022-08-06T05:40:40;12.70;;;11.15;;
21293;SDS011;10806;52.250;21.066;2022-08-06T05:43:05;12.95;;;11.55;;
21293;SDS011;10806;52.250;21.066;2022-08-06T05:45:31;14.95;;;11.65;;
21293;SDS011;10806;52.250;21.066;2022-08-06T05:47:58;12.90;;;11.20;;
21293;SDS011;10806;52.250;21.066;2022-08-06T05:50:27;13.93;;;11.60;;
21293;SDS011;10806;52.250;21.066;2022-08-06T05:53:04;11.93;;;10.75;;
21293;SDS011;10806;52.250;21.066;2022-08-06T05:55:39;15.60;;;11.55;;
21293;SDS011;10806;52.250;21.066;2022-08-06T05:58:12;13.18;;;11.65;;
21293;SDS011;10806;52.250;21.066;2022-08-06T06:00:40;13.52;;;11.65;;
21293;SDS011;10806;52.250;21.066;2022-08-06T06:03:07;12.93;;;11.15;;
21293;SDS011;10806;52.250;21.066;2022-08-06T06:05:38;11.07;;;10.00;;
21293;SDS011;10806;52.250;21.066;2022-08-06T06:08:05;13.93;;;10.50;;
21293;SDS011;10806;52.250;21.066;2022-08-06T06:10:33;12.95;;;11.57;;
21293;SDS011;10806;52.250;21.066;2022-08-06T06:13:01;12.70;;;11.13;;
21293;SDS011;10806;52.250;21.066;2022-08-06T06:15:27;16.77;;;11.75;;
21293;SDS011;10806;52.250;21.066;2022-08-06T06:26:37;12.32;;;11.13;;
21293;SDS011;10806;52.250;21.066;2022-08-06T06:29:30;11.65;;;10.45;;
21293;SDS011;10806;52.250;21.066;2022-08-06T06:34:40;13.43;;;10.57;;
21293;SDS011;10806;52.250;21.066;2022-08-06T06:37:19;11.13;;;10.02;;
21293;SDS011;10806;52.250;21.066;2022-08-06T06:39:54;11.82;;;10.57;;
21293;SDS011;10806;52.250;21.066;2022-08-06T06:42:31;12.18;;;10.77;;
21293;SDS011;10806;52.250;21.066;2022-08-06T06:45:14;15.95;;;11.18;;
21293;SDS011;10806;52.250;21.066;2022-08-06T06:47:57;12.50;;;10.60;;
21293;SDS011;10806;52.250;21.066;2022-08-06T06:50:27;12.15;;;10.80;;
21293;SDS011;10806;52.250;21.066;2022-08-06T06:52:57;12.15;;;10.95;;
21293;SDS011;10806;52.250;21.066;2022-08-06T06:55:33;13.32;;;11.27;;
21293;SDS011;10806;52.250;21.066;2022-08-06T06:58:02;12.15;;;10.68;;
21293;SDS011;10806;52.250;21.066;2022-08-06T07:00:33;11.82;;;10.65;;
21293;SDS011;10806;52.250;21.066;2022-08-06T07:03:01;15.77;;;10.75;;
21293;SDS011;10806;52.250;21.066;2022-08-06T07:05:29;12.75;;;10.70;;
21293;SDS011;10806;52.250;21.066;2022-08-06T07:07:57;10.63;;;9.63;;
21293;SDS011;10806;52.250;21.066;2022-08-06T07:10:24;11.30;;;10.15;;
21293;SDS011;10806;52.250;21.066;2022-08-06T07:12:51;12.27;;;9.90;;
21293;SDS011;10806;52.250;21.066;2022-08-06T07:15:18;13.52;;;11.20;;
21293;SDS011;10806;52.250;21.066;2022-08-06T07:17:46;14.10;;;10.50;;
21293;SDS011;10806;52.250;21.066;2022-08-06T07:20:14;11.32;;;10.00;;
21293;SDS011;10806;52.250;21.066;2022-08-06T07:22:46;14.25;;;10.60;;
21293;SDS011;10806;52.250;21.066;2022-08-06T07:25:13;11.27;;;10.18;;
21293;SDS011;10806;52.250;21.066;2022-08-06T07:27:41;12.35;;;10.13;;
21293;SDS011;10806;52.250;21.066;2022-08-06T07:30:14;13.93;;;10.60;;
21293;SDS011;10806;52.250;21.066;2022-08-06T07:32:41;10.95;;;9.77;;
21293;SDS011;10806;52.250;21.066;2022-08-06T07:35:09;11.38;;;10.18;;
21293;SDS011;10806;52.250;21.066;2022-08-06T07:37:35;11.85;;;10.55;;
21293;SDS011;10806;52.250;21.066;2022-08-06T07:40:06;12.25;;;10.20;;
21293;SDS011;10806;52.250;21.066;2022-08-06T07:42:34;12.10;;;9.68;;
21293;SDS011;10806;52.250;21.066;2022-08-06T07:45:02;10.38;;;9.43;;
21293;SDS011;10806;52.250;21.066;2022-08-06T07:47:34;11.63;;;10.32;;
21293;SDS011;10806;52.250;21.066;2022-08-06T07:50:04;11.02;;;10.02;;
21293;SDS011;10806;52.250;21.066;2022-08-06T07:52:34;11.00;;;9.90;;
21293;SDS011;10806;52.250;21.066;2022-08-06T07:55:01;11.00;;;9.90;;
21293;SDS011;10806;52.250;21.066;2022-08-06T07:57:27;13.57;;;9.82;;
21293;SDS011;10806;52.250;21.066;2022-08-06T07:59:55;10.98;;;9.55;;
21293;SDS011;10806;52.250;21.066;2022-08-06T08:02:21;10.40;;;9.27;;
21293;SDS011;10806;52.250;21.066;2022-08-06T08:04:47;11.20;;;10.10;;
21293;SDS011;10806;52.250;21.066;2022-08-06T08:07:31;10.25;;;9.25;;
21293;SDS011;10806;52.250;21.066;2022-08-06T08:09:57;9.70;;;8.70;;
21293;SDS011;10806;52.250;21.066;2022-08-06T08:12:24;11.95;;;9.70;;
21293;SDS011;10806;52.250;21.066;2022-08-06T08:14:51;10.07;;;9.15;;
21293;SDS011;10806;52.250;21.066;2022-08-06T08:17:17;10.35;;;9.15;;
21293;SDS011;10806;52.250;21.066;2022-08-06T08:19:43;9.73;;;8.82;;
21293;SDS011;10806;52.250;21.066;2022-08-06T08:22:12;10.45;;;9.45;;
21293;SDS011;10806;52.250;21.066;2022-08-06T08:24:41;9.68;;;8.77;;
21293;SDS011;10806;52.250;21.066;2022-08-06T08:27:08;10.23;;;9.02;;
21293;SDS011;10806;52.250;21.066;2022-08-06T08:29:35;10.02;;;9.00;;
21293;SDS011;10806;52.250;21.066;2022-08-06T08:32:05;10.20;;;9.20;;
21293;SDS011;10806;52.250;21.066;2022-08-06T08:34:32;10.50;;;8.48;;
21293;SDS011;10806;52.250;21.066;2022-08-06T08:36:58;10.93;;;8.70;;
21293;SDS011;10806;52.250;21.066;2022-08-06T08:39:24;9.15;;;8.32;;
21293;SDS011;10806;52.250;21.066;2022-08-06T08:42:10;9.40;;;8.50;;
21293;SDS011;10806;52.250;21.066;2022-08-06T08:44:43;9.43;;;8.25;;
21293;SDS011;10806;52.250;21.066;2022-08-06T08:47:12;9.82;;;8.88;;
21293;SDS011;10806;52.250;21.066;2022-08-06T08:49:39;10.07;;;8.70;;
21293;SDS011;10806;52.250;21.066;2022-08-06T08:52:07;9.27;;;8.38;;
21293;SDS011;10806;52.250;21.066;2022-08-06T08:54:34;9.30;;;8.35;;
21293;SDS011;10806;52.250;21.066;2022-08-06T08:57:04;9.52;;;8.55;;
21293;SDS011;10806;52.250;21.066;2022-08-06T08:59:30;10.82;;;8.00;;
21293;SDS011;10806;52.250;21.066;2022-08-06T09:01:57;16.17;;;7.82;;
21293;SDS011;10806;52.250;21.066;2022-08-06T09:04:23;9.65;;;8.02;;
21293;SDS011;10806;52.250;21.066;2022-08-06T09:06:50;9.90;;;8.15;;
21293;SDS011;10806;52.250;21.066;2022-08-06T09:09:16;10.27;;;7.80;;
21293;SDS011;10806;52.250;21.066;2022-08-06T09:11:42;10.77;;;8.05;;
21293;SDS011;10806;52.250;21.066;2022-08-06T09:14:08;8.32;;;7.50;;
21293;SDS011;10806;52.250;21.066;2022-08-06T09:16:34;12.00;;;7.95;;
21293;SDS011;10806;52.250;21.066;2022-08-06T09:19:01;10.15;;;8.20;;
21293;SDS011;10806;52.250;21.066;2022-08-06T09:21:28;11.23;;;8.00;;
21293;SDS011;10806;52.250;21.066;2022-08-06T09:23:55;10.15;;;7.78;;
21293;SDS011;10806;52.250;21.066;2022-08-06T09:26:21;12.73;;;7.65;;
21293;SDS011;10806;52.250;21.066;2022-08-06T09:28:47;13.80;;;8.20;;
21293;SDS011;10806;52.250;21.066;2022-08-06T09:31:15;10.98;;;7.22;;
21293;SDS011;10806;52.250;21.066;2022-08-06T09:34:02;12.00;;;6.95;;
21293;SDS011;10806;52.250;21.066;2022-08-06T09:36:29;15.73;;;6.53;;
21293;SDS011;10806;52.250;21.066;2022-08-06T09:39:06;14.02;;;5.70;;
21293;SDS011;10806;52.250;21.066;2022-08-06T09:41:32;9.05;;;4.78;;
21293;SDS011;10806;52.250;21.066;2022-08-06T09:43:58;10.60;;;5.15;;
21293;SDS011;10806;52.250;21.066;2022-08-06T09:49:10;12.32;;;5.50;;
21293;SDS011;10806;52.250;21.066;2022-08-06T09:51:37;8.77;;;4.82;;
21293;SDS011;10806;52.250;21.066;2022-08-06T09:54:04;21.85;;;5.35;;
21293;SDS011;10806;52.250;21.066;2022-08-06T09:56:31;12.73;;;5.43;;
21293;SDS011;10806;52.250;21.066;2022-08-06T09:58:58;13.57;;;5.50;;
21293;SDS011;10806;52.250;21.066;2022-08-06T10:01:25;16.52;;;4.82;;
21293;SDS011;10806;52.250;21.066;2022-08-06T10:03:54;27.90;;;5.32;;
21293;SDS011;10806;52.250;21.066;2022-08-06T10:06:21;11.82;;;4.90;;
21293;SDS011;10806;52.250;21.066;2022-08-06T10:08:48;10.30;;;5.05;;
21293;SDS011;10806;52.250;21.066;2022-08-06T10:11:16;8.48;;;5.10;;
21293;SDS011;10806;52.250;21.066;2022-08-06T10:13:58;19.20;;;5.03;;
21293;SDS011;10806;52.250;21.066;2022-08-06T10:16:23;12.95;;;5.05;;
21293;SDS011;10806;52.250;21.066;2022-08-06T10:18:52;8.23;;;4.82;;
21293;SDS011;10806;52.250;21.066;2022-08-06T10:21:19;11.02;;;4.35;;
21293;SDS011;10806;52.250;21.066;2022-08-06T10:23:49;8.18;;;4.10;;
21293;SDS011;10806;52.250;21.066;2022-08-06T10:26:17;9.18;;;4.70;;
21293;SDS011;10806;52.250;21.066;2022-08-06T10:28:44;23.23;;;6.40;;
21293;SDS011;10806;52.250;21.066;2022-08-06T10:31:13;27.70;;;6.13;;
21293;SDS011;10806;52.250;21.066;2022-08-06T10:33:44;22.27;;;4.97;;
21293;SDS011;10806;52.250;21.066;2022-08-06T10:36:19;23.17;;;5.93;;
21293;SDS011;10806;52.250;21.066;2022-08-06T10:38:48;22.20;;;5.22;;
21293;SDS011;10806;52.250;21.066;2022-08-06T10:41:15;22.95;;;5.13;;
21293;SDS011;10806;52.250;21.066;2022-08-06T10:43:42;24.83;;;5.15;;
21293;SDS011;10806;52.250;21.066;2022-08-06T10:46:09;22.60;;;5.05;;
21293;SDS011;10806;52.250;21.066;2022-08-06T10:48:38;19.45;;;5.03;;
21293;SDS011;10806;52.250;21.066;2022-08-06T10:51:05;20.75;;;5.40;;
21293;SDS011;10806;52.250;21.066;2022-08-06T10:53:33;16.27;;;5.60;;
21293;SDS011;10806;52.250;21.066;2022-08-06T10:56:00;18.67;;;5.25;;
21293;SDS011;10806;52.250;21.066;2022-08-06T10:58:30;16.70;;;5.07;;
21293;SDS011;10806;52.250;21.066;2022-08-06T11:00:58;14.88;;;5.07;;
21293;SDS011;10806;52.250;21.066;2022-08-06T11:03:46;12.77;;;4.60;;
21293;SDS011;10806;52.250;21.066;2022-08-06T11:06:48;19.10;;;4.93;;
21293;SDS011;10806;52.250;21.066;2022-08-06T11:15:25;17.10;;;4.85;;
21293;SDS011;10806;52.250;21.066;2022-08-06T11:17:51;13.23;;;4.00;;
21293;SDS011;10806;52.250;21.066;2022-08-06T11:20:34;8.13;;;3.33;;
21293;SDS011;10806;52.250;21.066;2022-08-06T11:25:40;8.30;;;3.00;;
21293;SDS011;10806;52.250;21.066;2022-08-06T11:28:11;6.07;;;2.60;;
21293;SDS011;10806;52.250;21.066;2022-08-06T11:30:51;14.90;;;3.00;;
21293;SDS011;10806;52.250;21.066;2022-08-06T11:33:19;11.88;;;2.80;;
21293;SDS011;10806;52.250;21.066;2022-08-06T11:35:46;10.45;;;3.00;;
21293;SDS011;10806;52.250;21.066;2022-08-06T11:38:16;10.32;;;3.33;;
21293;SDS011;10806;52.250;21.066;2022-08-06T11:41:16;10.65;;;2.67;;
21293;SDS011;10806;52.250;21.066;2022-08-06T11:46:34;10.57;;;2.90;;
21293;SDS011;10806;52.250;21.066;2022-08-06T11:54:21;11.23;;;2.30;;
21293;SDS011;10806;52.250;21.066;2022-08-06T11:59:45;10.05;;;2.42;;
21293;SDS011;10806;52.250;21.066;2022-08-06T12:02:14;9.80;;;2.40;;
21293;SDS011;10806;52.250;21.066;2022-08-06T12:04:42;16.00;;;2.95;;
21293;SDS011;10806;52.250;21.066;2022-08-06T12:14:56;25.25;;;2.95;;
21293;SDS011;10806;52.250;21.066;2022-08-06T12:17:24;10.80;;;2.50;;
21293;SDS011;10806;52.250;21.066;2022-08-06T12:19:52;16.02;;;2.97;;
21293;SDS011;10806;52.250;21.066;2022-08-06T12:22:20;11.07;;;2.42;;
21293;SDS011;10806;52.250;21.066;2022-08-06T12:24:50;15.30;;;2.95;;
21293;SDS011;10806;52.250;21.066;2022-08-06T12:27:19;12.40;;;2.90;;
21293;SDS011;10806;52.250;21.066;2022-08-06T12:29:48;15.68;;;2.83;;
21293;SDS011;10806;52.250;21.066;2022-08-06T12:32:23;18.42;;;2.65;;
21293;SDS011;10806;52.250;21.066;2022-08-06T12:34:53;15.98;;;2.30;;
21293;SDS011;10806;52.250;21.066;2022-08-06T12:37:31;13.32;;;2.45;;
21293;SDS011;10806;52.250;21.066;2022-08-06T12:40:02;10.15;;;2.40;;
21293;SDS011;10806;52.250;21.066;2022-08-06T12:42:51;10.20;;;2.40;;
21293;SDS011;10806;52.250;21.066;2022-08-06T12:45:33;12.40;;;2.55;;
21293;SDS011;10806;52.250;21.066;2022-08-06T12:47:59;10.68;;;2.40;;
21293;SDS011;10806;52.250;21.066;2022-08-06T12:50:37;7.82;;;2.15;;
21293;SDS011;10806;52.250;21.066;2022-08-06T12:53:11;9.90;;;2.50;;
21293;SDS011;10806;52.250;21.066;2022-08-06T12:55:48;11.38;;;2.05;;
21293;SDS011;10806;52.250;21.066;2022-08-06T12:58:19;13.63;;;2.60;;
21293;SDS011;10806;52.250;21.066;2022-08-06T13:00:54;9.55;;;2.30;;
21293;SDS011;10806;52.250;21.066;2022-08-06T13:03:23;9.90;;;2.25;;
21293;SDS011;10806;52.250;21.066;2022-08-06T13:05:50;8.35;;;2.33;;
21293;SDS011;10806;52.250;21.066;2022-08-06T13:08:18;14.23;;;2.40;;
21293;SDS011;10806;52.250;21.066;2022-08-06T13:10:47;9.98;;;2.60;;
21293;SDS011;10806;52.250;21.066;2022-08-06T13:13:14;8.80;;;2.10;;
21293;SDS011;10806;52.250;21.066;2022-08-06T13:15:41;7.65;;;2.35;;
21293;SDS011;10806;52.250;21.066;2022-08-06T13:18:09;8.48;;;2.30;;
21293;SDS011;10806;52.250;21.066;2022-08-06T13:20:46;8.45;;;2.58;;
21293;SDS011;10806;52.250;21.066;2022-08-06T13:23:14;8.48;;;2.13;;
21293;SDS011;10806;52.250;21.066;2022-08-06T13:25:47;7.05;;;2.30;;
21293;SDS011;10806;52.250;21.066;2022-08-06T13:28:19;8.38;;;2.38;;
21293;SDS011;10806;52.250;21.066;2022-08-06T13:30:46;7.55;;;2.58;;
21293;SDS011;10806;52.250;21.066;2022-08-06T13:33:18;9.98;;;2.15;;
21293;SDS011;10806;52.250;21.066;2022-08-06T13:35:45;6.65;;;2.17;;
21293;SDS011;10806;52.250;21.066;2022-08-06T13:38:31;9.30;;;2.03;;
21293;SDS011;10806;52.250;21.066;2022-08-06T13:41:00;10.23;;;2.30;;
21293;SDS011;10806;52.250;21.066;2022-08-06T13:43:40;8.55;;;2.28;;
21293;SDS011;10806;52.250;21.066;2022-08-06T13:46:16;4.63;;;2.20;;
21293;SDS011;10806;52.250;21.066;2022-08-06T13:48:43;6.70;;;2.30;;
21293;SDS011;10806;52.250;21.066;2022-08-06T13:51:14;5.78;;;2.42;;
21293;SDS011;10806;52.250;21.066;2022-08-06T13:53:41;7.55;;;2.00;;
21293;SDS011;10806;52.250;21.066;2022-08-06T13:56:07;10.68;;;2.35;;
21293;SDS011;10806;52.250;21.066;2022-08-06T13:58:33;16.38;;;3.30;;
21293;SDS011;10806;52.250;21.066;2022-08-06T14:00:59;15.13;;;2.67;;
21293;SDS011;10806;52.250;21.066;2022-08-06T14:03:25;18.60;;;2.50;;
21293;SDS011;10806;52.250;21.066;2022-08-06T14:05:52;9.88;;;2.33;;
21293;SDS011;10806;52.250;21.066;2022-08-06T14:08:17;12.88;;;2.45;;
21293;SDS011;10806;52.250;21.066;2022-08-06T14:10:43;13.57;;;3.00;;
21293;SDS011;10806;52.250;21.066;2022-08-06T14:13:09;12.20;;;2.53;;
21293;SDS011;10806;52.250;21.066;2022-08-06T14:15:40;8.27;;;2.47;;
21293;SDS011;10806;52.250;21.066;2022-08-06T14:18:07;12.57;;;2.60;;
21293;SDS011;10806;52.250;21.066;2022-08-06T14:20:33;8.40;;;2.28;;
21293;SDS011;10806;52.250;21.066;2022-08-06T14:22:58;13.30;;;2.63;;
21293;SDS011;10806;52.250;21.066;2022-08-06T14:25:24;8.90;;;2.30;;
21293;SDS011;10806;52.250;21.066;2022-08-06T14:27:51;9.02;;;2.17;;
21293;SDS011;10806;52.250;21.066;2022-08-06T14:30:17;12.82;;;2.78;;
21293;SDS011;10806;52.250;21.066;2022-08-06T14:32:44;10.30;;;2.20;;
21293;SDS011;10806;52.250;21.066;2022-08-06T14:35:09;8.30;;;1.92;;
21293;SDS011;10806;52.250;21.066;2022-08-06T14:37:36;8.05;;;2.38;;
21293;SDS011;10806;52.250;21.066;2022-08-06T14:40:02;6.68;;;2.30;;
21293;SDS011;10806;52.250;21.066;2022-08-06T14:42:28;6.72;;;2.10;;
21293;SDS011;10806;52.250;21.066;2022-08-06T14:45:13;9.05;;;2.20;;
21293;SDS011;10806;52.250;21.066;2022-08-06T14:47:39;5.18;;;2.10;;
21293;SDS011;10806;52.250;21.066;2022-08-06T14:50:05;7.50;;;2.08;;
21293;SDS011;10806;52.250;21.066;2022-08-06T14:52:30;7.88;;;2.10;;
21293;SDS011;10806;52.250;21.066;2022-08-06T14:54:56;6.72;;;2.15;;
21293;SDS011;10806;52.250;21.066;2022-08-06T14:57:22;6.95;;;2.10;;
21293;SDS011;10806;52.250;21.066;2022-08-06T14:59:47;6.70;;;2.00;;
21293;SDS011;10806;52.250;21.066;2022-08-06T15:02:13;8.00;;;2.33;;
21293;SDS011;10806;52.250;21.066;2022-08-06T15:04:39;11.82;;;2.38;;
21293;SDS011;10806;52.250;21.066;2022-08-06T15:07:05;5.15;;;1.90;;
21293;SDS011;10806;52.250;21.066;2022-08-06T15:09:31;6.88;;;2.17;;
21293;SDS011;10806;52.250;21.066;2022-08-06T15:11:57;4.28;;;1.80;;
21293;SDS011;10806;52.250;21.066;2022-08-06T15:14:24;5.22;;;1.90;;
21293;SDS011;10806;52.250;21.066;2022-08-06T15:16:51;6.95;;;1.85;;